^^

..:: Storico WU ::..




Lo storico viene creato da WUnderground con i dati che la stazione Meteomincio invia al loro server. L' aggiornamento viene fatto ogni 5 minuti circa, tuttavia possono esserci intervalli pił ampi a causa di errori, interruzioni di servizio o problemi nell' invio tramite FTP.


Storico stazione MeteoMincio
Giorno Sommario per Giugno 02, 2023 Unità:  Inglese    Metrico   Entrambi
Giorno Settimana Mese Anno
  Max: Min: Media:
Temperatura: 86 °F 62.6 °F 73.4 °F
Dew Point: 71.6 °F 59 °F 63.7 °F
Umidità: 89% 48% 73%
Velocità vento: 12.4mph 0mph 2.7mph
Raffica: 17.4mph - -
Direzione- - SSW
Pressione: 29.9 in 29.8 in -
Precipitazioni: 0.17 in    
 
 
Tabulato Dati per Giugno 02, 2023
Ora Temperatura Dew Point Pressione Direzione Velocità vento Raffica Umidità Intensità pioggia (oraria) Info solare Situazione
00:04 68 °F 62.6 °F 29.9 in East 1.9 mph 3.7 mph 81% 0 in 0.00 W/m2 unknown
00:09 68 °F 62.6 °F 29.9 in ENE 2.5 mph 3.7 mph 81% 0 in 0.00 W/m2 unknown
00:14 68 °F 62.6 °F 29.9 in NE 2.5 mph 3.7 mph 82% 0 in 0.00 W/m2 unknown
00:19 68 °F 62.6 °F 29.9 in ENE 2.5 mph 3.7 mph 81% 0 in 0.00 W/m2 unknown
00:24 68 °F 62.6 °F 29.9 in ENE 3.1 mph 3.7 mph 81% 0 in 0.00 W/m2 unknown
00:29 68 °F 60.8 °F 29.9 in ENE 1.9 mph 3.7 mph 79% 0 in 0.00 W/m2 unknown
00:34 68 °F 60.8 °F 29.9 in ENE 1.2 mph 2.5 mph 79% 0 in 0.00 W/m2 unknown
00:39 68 °F 62.6 °F 29.9 in Calm   1.9 mph 79% 0 in 0.00 W/m2 unknown
00:44 68 °F 62.6 °F 29.9 in NE 1.2 mph 2.5 mph 79% 0 in 0.00 W/m2 unknown
00:49 68 °F 62.6 °F 29.9 in Calm   1.9 mph 80% 0 in 0.00 W/m2 unknown
00:54 68 °F 62.6 °F 29.9 in Calm   1.2 mph 80% 0 in 0.00 W/m2 unknown
00:59 68 °F 62.6 °F 29.9 in NE 0.6 mph 1.9 mph 80% 0 in 0.00 W/m2 unknown
01:04 68 °F 62.6 °F 29.9 in NE 1.2 mph 2.5 mph 80% 0 in 0.00 W/m2 unknown
01:09 68 °F 62.6 °F 29.9 in NE 0.6 mph 1.9 mph 80% 0 in 0.00 W/m2 unknown
01:14 68 °F 62.6 °F 29.9 in NE 0.6 mph 1.9 mph 80% 0 in 0.00 W/m2 unknown
01:19 68 °F 62.6 °F 29.9 in NE 1.2 mph 2.5 mph 80% 0 in 0.00 W/m2 unknown
01:24 68 °F 62.6 °F 29.9 in NE 1.9 mph 3.1 mph 80% 0 in 0.00 W/m2 unknown
01:29 68 °F 60.8 °F 29.9 in NE 1.9 mph 3.7 mph 78% 0 in 0.00 W/m2 unknown
01:34 68 °F 60.8 °F 29.9 in ENE 4.3 mph 5 mph 78% 0 in 0.00 W/m2 unknown
01:39 68 °F 60.8 °F 29.9 in East 3.7 mph 5 mph 78% 0 in 0.00 W/m2 unknown
01:44 68 °F 60.8 °F 29.9 in East 3.1 mph 5 mph 78% 0 in 0.00 W/m2 unknown
01:49 68 °F 60.8 °F 29.9 in East 3.1 mph 5 mph 78% 0 in 0.00 W/m2 unknown
01:54 68 °F 60.8 °F 29.9 in East 2.5 mph 5 mph 78% 0 in 0.00 W/m2 unknown
01:59 68 °F 60.8 °F 29.9 in East 2.5 mph 3.7 mph 79% 0 in 0.00 W/m2 unknown
02:04 68 °F 60.8 °F 29.9 in East 1.9 mph 3.7 mph 79% 0 in 0.00 W/m2 unknown
02:09 68 °F 60.8 °F 29.9 in East 1.9 mph 3.7 mph 80% 0 in 0.00 W/m2 unknown
02:14 68 °F 60.8 °F 29.9 in East 1.9 mph 3.1 mph 80% 0 in 0.00 W/m2 unknown
02:19 68 °F 60.8 °F 29.9 in East 1.9 mph 3.7 mph 80% 0 in 0.00 W/m2 unknown
02:24 68 °F 60.8 °F 29.9 in East 1.9 mph 3.1 mph 81% 0 in 0.00 W/m2 unknown
02:29 66.2 °F 60.8 °F 29.9 in East 1.9 mph 2.5 mph 81% 0 in 0.00 W/m2 unknown
02:34 66.2 °F 60.8 °F 29.9 in East 1.9 mph 2.5 mph 82% 0 in 0.00 W/m2 unknown
02:39 66.2 °F 60.8 °F 29.9 in East 1.2 mph 1.9 mph 82% 0 in 0.00 W/m2 unknown
02:44 66.2 °F 60.8 °F 29.9 in Calm   1.2 mph 82% 0 in 0.00 W/m2 unknown
02:49 66.2 °F 60.8 °F 29.9 in Calm   1.2 mph 82% 0 in 0.00 W/m2 unknown
02:54 66.2 °F 60.8 °F 29.9 in South 1.9 mph 2.5 mph 84% 0 in 0.00 W/m2 unknown
02:59 66.2 °F 60.8 °F 29.9 in SW 2.5 mph 3.7 mph 84% 0 in 0.00 W/m2 unknown
03:04 64.4 °F 60.8 °F 29.9 in WSW 2.5 mph 3.7 mph 85% 0 in 0.00 W/m2 unknown
03:09 64.4 °F 60.8 °F 29.9 in WSW 2.5 mph 3.7 mph 85% 0 in 0.00 W/m2 unknown
03:14 64.4 °F 60.8 °F 29.9 in West 2.5 mph 3.7 mph 85% 0 in 0.00 W/m2 unknown
03:19 64.4 °F 60.8 °F 29.9 in WNW 1.2 mph 3.7 mph 85% 0 in 0.00 W/m2 unknown
03:24 64.4 °F 60.8 °F 29.9 in WNW 1.9 mph 3.7 mph 85% 0 in 0.00 W/m2 unknown
03:29 64.4 °F 60.8 °F 29.9 in WNW 1.2 mph 3.1 mph 85% 0 in 0.00 W/m2 unknown
03:34 64.4 °F 60.8 °F 29.9 in NW 1.9 mph 2.5 mph 84% 0 in 0.00 W/m2 unknown
03:39 66.2 °F 60.8 °F 29.9 in WNW 1.2 mph 2.5 mph 84% 0 in 0.00 W/m2 unknown
03:44 66.2 °F 60.8 °F 29.9 in WNW 1.2 mph 2.5 mph 84% 0 in 0.00 W/m2 unknown
03:49 64.4 °F 60.8 °F 29.9 in WNW 1.2 mph 2.5 mph 84% 0 in 0.00 W/m2 unknown
03:54 64.4 °F 60.8 °F 29.9 in NW 1.2 mph 2.5 mph 84% 0 in 0.00 W/m2 unknown
03:59 64.4 °F 60.8 °F 29.9 in NW 1.2 mph 2.5 mph 84% 0 in 0.00 W/m2 unknown
04:04 64.4 °F 60.8 °F 29.9 in NW 1.9 mph 3.7 mph 84% 0 in 0.00 W/m2 unknown
04:09 64.4 °F 60.8 °F 29.9 in NW 1.2 mph 3.1 mph 84% 0 in 0.00 W/m2 unknown
04:14 64.4 °F 60.8 °F 29.9 in NW 1.2 mph 1.9 mph 84% 0 in 0.00 W/m2 unknown
04:19 64.4 °F 59 °F 29.9 in NW 1.9 mph 2.5 mph 85% 0 in 0.00 W/m2 unknown
04:24 64.4 °F 60.8 °F 29.9 in NW 1.2 mph 2.5 mph 86% 0 in 0.00 W/m2 unknown
04:29 64.4 °F 60.8 °F 29.9 in NW 1.2 mph 2.5 mph 86% 0 in 0.00 W/m2 unknown
04:34 64.4 °F 59 °F 29.9 in NW 1.2 mph 2.5 mph 86% 0 in 0.00 W/m2 unknown
04:39 64.4 °F 59 °F 29.9 in Calm   1.9 mph 87% 0 in 0.00 W/m2 unknown
04:44 64.4 °F 59 °F 29.9 in Calm   1.2 mph 87% 0 in 0.00 W/m2 unknown
04:49 64.4 °F 59 °F 29.9 in Calm   1.2 mph 87% 0 in 0.00 W/m2 unknown
04:54 64.4 °F 59 °F 29.9 in Calm     87% 0 in 0.00 W/m2 unknown
04:59 64.4 °F 59 °F 29.9 in Calm     87% 0 in 0.00 W/m2 unknown
05:04 64.4 °F 60.8 °F 29.9 in Calm     87% 0 in 0.00 W/m2 unknown
05:09 64.4 °F 60.8 °F 29.9 in Calm     87% 0 in 0.00 W/m2 unknown
05:14 64.4 °F 60.8 °F 29.9 in Calm     87% 0 in 0.00 W/m2 unknown
05:19 64.4 °F 60.8 °F 29.9 in Calm     87% 0 in 0.00 W/m2 unknown
05:24 64.4 °F 60.8 °F 29.9 in Calm     87% 0 in 0.00 W/m2 unknown
05:29 64.4 °F 60.8 °F 29.9 in Calm     87% 0 in 0.00 W/m2 unknown
05:34 64.4 °F 60.8 °F 29.9 in Calm     87% 0 in 0.00 W/m2 unknown
05:39 64.4 °F 59 °F 29.9 in Calm     87% 0 in 5.00 W/m2 unknown
05:44 64.4 °F 59 °F 29.9 in Calm     88% 0 in 7.00 W/m2 unknown
05:49 62.6 °F 59 °F 29.9 in Calm     88% 0 in 11.00 W/m2 unknown
05:54 62.6 °F 59 °F 29.9 in Calm     89% 0 in 14.00 W/m2 unknown
05:59 62.6 °F 59 °F 29.9 in NW 1.9 mph 3.7 mph 89% 0 in 16.00 W/m2 unknown
06:04 62.6 °F 59 °F 29.9 in WNW 1.2 mph 3.1 mph 89% 0 in 18.00 W/m2 unknown
06:09 62.6 °F 59 °F 29.9 in SW 1.9 mph 2.5 mph 89% 0 in 21.00 W/m2 unknown
06:14 62.6 °F 59 °F 29.9 in Calm   1.9 mph 89% 0 in 26.00 W/m2 unknown
06:19 62.6 °F 59 °F 29.9 in SW 0.6 mph 1.2 mph 89% 0 in 30.00 W/m2 unknown
06:24 62.6 °F 59 °F 29.9 in SW 0.6 mph 1.2 mph 89% 0 in 39.00 W/m2 unknown
06:29 62.6 °F 59 °F 29.9 in WSW 1.2 mph 3.1 mph 88% 0 in 46.00 W/m2 unknown
06:34 62.6 °F 59 °F 29.9 in West 2.5 mph 3.7 mph 88% 0 in 53.00 W/m2 unknown
06:39 62.6 °F 59 °F 29.9 in WSW 1.9 mph 3.1 mph 88% 0 in 60.00 W/m2 unknown
06:44 62.6 °F 59 °F 29.9 in West 0.6 mph 1.9 mph 88% 0 in 67.00 W/m2 unknown
06:49 64.4 °F 60.8 °F 29.9 in Calm   1.2 mph 88% 0 in 77.00 W/m2 unknown
06:54 64.4 °F 60.8 °F 29.9 in Calm   1.2 mph 88% 0 in 88.00 W/m2 unknown
06:59 64.4 °F 60.8 °F 29.9 in West 0.6 mph 1.2 mph 87% 0 in 98.00 W/m2 unknown
07:04 64.4 °F 60.8 °F 29.9 in West 1.2 mph 1.2 mph 87% 0 in 109.00 W/m2 unknown
07:09 64.4 °F 60.8 °F 29.9 in West 0.6 mph 1.2 mph 87% 0 in 123.00 W/m2 unknown
07:14 66.2 °F 60.8 °F 29.9 in West 0.6 mph 1.9 mph 87% 0 in 134.00 W/m2 unknown
07:19 66.2 °F 62.6 °F 29.9 in WNW 1.2 mph 2.5 mph 86% 0 in 146.00 W/m2 unknown
07:24 66.2 °F 62.6 °F 29.9 in WNW 1.2 mph 2.5 mph 84% 0 in 155.00 W/m2 unknown
07:29 66.2 °F 62.6 °F 29.9 in WNW 0.6 mph 1.2 mph 84% 0 in 169.00 W/m2 unknown
07:34 68 °F 62.6 °F 29.9 in WNW 1.2 mph 2.5 mph 83% 0 in 183.00 W/m2 unknown
07:39 68 °F 62.6 °F 29.9 in WNW 1.2 mph 2.5 mph 82% 0 in 199.00 W/m2 unknown
07:44 68 °F 62.6 °F 29.9 in NNW 1.2 mph 2.5 mph 81% 0 in 211.00 W/m2 unknown
07:49 69.8 °F 62.6 °F 29.9 in NNE 1.2 mph 1.9 mph 80% 0 in 221.00 W/m2 unknown
07:54 69.8 °F 62.6 °F 29.9 in NE 0.6 mph 1.2 mph 79% 0 in 237.00 W/m2 unknown
07:59 69.8 °F 62.6 °F 29.9 in North 0.6 mph 1.9 mph 80% 0 in 251.00 W/m2 unknown
08:04 69.8 °F 62.6 °F 29.9 in West 1.9 mph 2.5 mph 79% 0 in 262.00 W/m2 unknown
08:09 69.8 °F 62.6 °F 29.9 in West 1.9 mph 2.5 mph 77% 0 in 272.00 W/m2 unknown
08:14 69.8 °F 62.6 °F 29.9 in West 1.9 mph 3.1 mph 77% 0 in 292.00 W/m2 unknown
08:19 69.8 °F 62.6 °F 29.9 in NW 2.5 mph 3.7 mph 77% 0 in 301.00 W/m2 unknown
08:24 71.6 °F 62.6 °F 29.9 in WNW 2.5 mph 3.7 mph 77% 0 in 311.00 W/m2 unknown
08:29 71.6 °F 62.6 °F 29.9 in West 2.5 mph 3.7 mph 76% 0 in 329.00 W/m2 unknown
08:34 71.6 °F 62.6 °F 29.9 in WNW 2.5 mph 3.7 mph 75% 0 in 343.00 W/m2 unknown
08:39 71.6 °F 62.6 °F 29.9 in WNW 1.9 mph 3.7 mph 74% 0 in 353.00 W/m2 unknown
08:44 71.6 °F 62.6 °F 29.9 in West 1.9 mph 3.1 mph 74% 0 in 376.00 W/m2 unknown
08:49 71.6 °F 62.6 °F 29.9 in West 2.5 mph 3.7 mph 74% 0 in 390.00 W/m2 unknown
08:54 71.6 °F 62.6 °F 29.9 in WSW 2.5 mph 3.7 mph 74% 0 in 401.00 W/m2 unknown
08:59 73.4 °F 64.4 °F 29.9 in WSW 1.2 mph 3.1 mph 75% 0 in 417.00 W/m2 unknown
09:04 73.4 °F 64.4 °F 29.9 in WSW 1.9 mph 3.7 mph 74% 0 in 431.00 W/m2 unknown
09:09 73.4 °F 64.4 °F 29.9 in WNW 3.1 mph 3.7 mph 74% 0 in 446.00 W/m2 unknown
09:14 73.4 °F 64.4 °F 29.9 in NW 3.1 mph 3.7 mph 72% 0 in 459.00 W/m2 unknown
09:19 73.4 °F 64.4 °F 29.9 in WNW 1.9 mph 3.1 mph 71% 0 in 475.00 W/m2 unknown
09:24 73.4 °F 64.4 °F 29.9 in WNW 1.9 mph 3.7 mph 71% 0 in 489.00 W/m2 unknown
09:29 73.4 °F 64.4 °F 29.9 in SW 3.1 mph 3.7 mph 71% 0 in 503.00 W/m2 unknown
09:34 75.2 °F 64.4 °F 29.9 in SW 1.9 mph 3.7 mph 71% 0 in 513.00 W/m2 unknown
09:39 75.2 °F 64.4 °F 29.9 in SSW 1.9 mph 3.7 mph 71% 0 in 524.00 W/m2 unknown
09:44 75.2 °F 64.4 °F 29.9 in WSW 3.7 mph 5 mph 70% 0 in 540.00 W/m2 unknown
09:49 75.2 °F 64.4 °F 29.9 in WNW 3.1 mph 5 mph 69% 0 in 550.00 W/m2 unknown
09:54 75.2 °F 64.4 °F 29.9 in West 1.9 mph 5 mph 69% 0 in 566.00 W/m2 unknown
09:59 75.2 °F 64.4 °F 29.9 in WSW 3.1 mph 3.7 mph 69% 0 in 573.00 W/m2 unknown
10:04 75.2 °F 64.4 °F 29.9 in South 1.9 mph 3.7 mph 70% 0 in 582.00 W/m2 unknown
10:09 75.2 °F 64.4 °F 29.9 in SSW 4.3 mph 6.2 mph 68% 0 in 589.00 W/m2 unknown
10:14 77 °F 64.4 °F 29.9 in SSW 5 mph 6.2 mph 67% 0 in 601.00 W/m2 unknown
10:19 77 °F 64.4 °F 29.9 in SW 4.3 mph 6.2 mph 66% 0 in 619.00 W/m2 unknown
10:24 77 °F 64.4 °F 29.9 in SW 4.3 mph 6.2 mph 65% 0 in 638.00 W/m2 unknown
10:29 77 °F 64.4 °F 29.9 in SSW 2.5 mph 6.2 mph 64% 0 in 650.00 W/m2 unknown
10:34 77 °F 62.6 °F 29.9 in South 3.7 mph 6.2 mph 63% 0 in 666.00 W/m2 unknown
10:39 77 °F 62.6 °F 29.9 in SSW 2.5 mph 6.2 mph 61% 0 in 677.00 W/m2 unknown
10:44 77 °F 62.6 °F 29.9 in SSW 1.9 mph 3.7 mph 60% 0 in 686.00 W/m2 unknown
10:49 77 °F 62.6 °F 29.9 in WSW 2.5 mph 3.7 mph 62% 0 in 696.00 W/m2 unknown
10:54 77 °F 64.4 °F 29.9 in West 2.5 mph 3.7 mph 63% 0 in 705.00 W/m2 unknown
10:59 78.8 °F 64.4 °F 29.9 in WSW 1.9 mph 3.7 mph 61% 0 in 719.00 W/m2 unknown
11:04 78.8 °F 64.4 °F 29.9 in WSW 4.3 mph 6.2 mph 61% 0 in 719.00 W/m2 unknown
11:09 78.8 °F 64.4 °F 29.9 in WSW 3.1 mph 6.2 mph 61% 0 in 738.00 W/m2 unknown
11:14 78.8 °F 64.4 °F 29.9 in SSE 1.9 mph 5 mph 60% 0 in 747.00 W/m2 unknown
11:19 78.8 °F 64.4 °F 29.9 in SW 5 mph 6.8 mph 61% 0 in 747.00 W/m2 unknown
11:24 78.8 °F 64.4 °F 29.9 in SSW 4.3 mph 6.8 mph 61% 0 in 759.00 W/m2 unknown
11:29 78.8 °F 62.6 °F 29.9 in SSW 3.7 mph 5 mph 59% 0 in 763.00 W/m2 unknown
11:34 78.8 °F 62.6 °F 29.9 in SW 3.7 mph 5 mph 58% 0 in 773.00 W/m2 unknown
11:39 78.8 °F 62.6 °F 29.9 in SE 2.5 mph 5 mph 57% 0 in 791.00 W/m2 unknown
11:44 78.8 °F 62.6 °F 29.9 in SSW 5 mph 6.2 mph 58% 0 in 791.00 W/m2 unknown
11:49 80.6 °F 64.4 °F 29.9 in SSW 5 mph 6.8 mph 58% 0 in 791.00 W/m2 unknown
11:54 80.6 °F 64.4 °F 29.9 in SSW 5 mph 6.8 mph 58% 0 in 798.00 W/m2 unknown
11:59 80.6 °F 64.4 °F 29.9 in SSW 5 mph 6.8 mph 59% 0 in 805.00 W/m2 unknown
12:04 80.6 °F 62.6 °F 29.9 in WNW 1.2 mph 5 mph 57% 0 in 807.00 W/m2 unknown
12:09 80.6 °F 64.4 °F 29.9 in SE 1.9 mph 3.1 mph 58% 0 in 814.00 W/m2 unknown
12:14 80.6 °F 64.4 °F 29.9 in West 4.3 mph 6.8 mph 58% 0 in 819.00 W/m2 unknown
12:19 80.6 °F 64.4 °F 29.9 in WSW 3.7 mph 8.1 mph 58% 0 in 817.00 W/m2 unknown
12:24 80.6 °F 64.4 °F 29.9 in South 3.7 mph 8.1 mph 58% 0 in 823.00 W/m2 unknown
12:29 82.4 °F 64.4 °F 29.9 in SW 3.1 mph 5 mph 58% 0 in 831.00 W/m2 unknown
12:34 82.4 °F 66.2 °F 29.9 in WSW 4.3 mph 5 mph 58% 0 in 837.00 W/m2 unknown
12:39 82.4 °F 64.4 °F 29.9 in WSW 4.3 mph 5 mph 57% 0 in 840.00 W/m2 unknown
12:44 82.4 °F 66.2 °F 29.9 in NW 3.1 mph 8.1 mph 58% 0 in 846.00 W/m2 unknown
12:49 82.4 °F 64.4 °F 29.9 in WNW 4.3 mph 8.1 mph 56% 0 in 849.00 W/m2 unknown
12:54 82.4 °F 64.4 °F 29.9 in WNW 3.7 mph 8.1 mph 57% 0 in 853.00 W/m2 unknown
12:59 82.4 °F 64.4 °F 29.9 in West 3.1 mph 8.1 mph 56% 0 in 858.00 W/m2 unknown
13:04 82.4 °F 64.4 °F 29.9 in West 5 mph 6.8 mph 56% 0 in 872.00 W/m2 unknown
13:09 82.4 °F 66.2 °F 29.9 in SW 5.6 mph 6.8 mph 57% 0 in 877.00 W/m2 unknown
13:14 82.4 °F 64.4 °F 29.9 in WSW 4.3 mph 6.8 mph 55% 0 in 889.00 W/m2 unknown
13:19 82.4 °F 64.4 °F 29.9 in West 5 mph 6.8 mph 56% 0 in 889.00 W/m2 unknown
13:24 82.4 °F 64.4 °F 29.9 in WNW 6.8 mph 8.1 mph 55% 0 in 877.00 W/m2 unknown
13:29 82.4 °F 64.4 °F 29.9 in SW 6.8 mph 8.1 mph 55% 0 in 902.00 W/m2 unknown
13:34 82.4 °F 64.4 °F 29.9 in SE 7.5 mph 10.6 mph 55% 0 in 909.00 W/m2 unknown
13:39 82.4 °F 64.4 °F 29.9 in ESE 7.5 mph 9.9 mph 55% 0 in 914.00 W/m2 unknown
13:44 84.2 °F 66.2 °F 29.9 in NE 3.1 mph 8.7 mph 57% 0 in 904.00 W/m2 unknown
13:49 84.2 °F 66.2 °F 29.9 in North 1.9 mph 5 mph 55% 0 in 276.00 W/m2 unknown
13:54 82.4 °F 64.4 °F 29.9 in South 1.9 mph 5 mph 55% 0 in 914.00 W/m2 unknown
13:59 84.2 °F 64.4 °F 29.9 in NW 3.7 mph 5 mph 55% 0 in 919.00 W/m2 unknown
14:04 84.2 °F 64.4 °F 29.9 in West 5 mph 6.2 mph 52% 0 in 926.00 W/m2 unknown
14:09 84.2 °F 64.4 °F 29.9 in West 3.7 mph 6.2 mph 51% 0 in 907.00 W/m2 unknown
14:14 84.2 °F 62.6 °F 29.9 in NW 3.1 mph 5 mph 50% 0 in 889.00 W/m2 unknown
14:19 82.4 °F 64.4 °F 29.9 in ESE 3.1 mph 3.7 mph 54% 0 in 918.00 W/m2 unknown
14:24 84.2 °F 66.2 °F 29.9 in NE 3.1 mph 3.7 mph 54% 0 in 935.00 W/m2 unknown
14:29 84.2 °F 66.2 °F 29.9 in NE 3.1 mph 3.7 mph 54% 0 in 947.00 W/m2 unknown
14:34 84.2 °F 64.4 °F 29.9 in NNW 2.5 mph 5 mph 51% 0 in 932.00 W/m2 unknown
14:39 86 °F 62.6 °F 29.9 in NW 5 mph 6.8 mph 49% 0 in 937.00 W/m2 unknown
14:44 86 °F 62.6 °F 29.8 in West 5.6 mph 6.8 mph 48% 0 in 923.00 W/m2 unknown
14:49 84.2 °F 64.4 °F 29.8 in SW 5 mph 6.8 mph 52% 0 in 905.00 W/m2 unknown
14:54 84.2 °F 66.2 °F 29.8 in NNE 5 mph 6.8 mph 54% 0 in 849.00 W/m2 unknown
14:59 84.2 °F 64.4 °F 29.8 in NE 5.6 mph 6.8 mph 51% 0 in 810.00 W/m2 unknown
15:04 84.2 °F 64.4 °F 29.8 in NE 5.6 mph 8.1 mph 52% 0 in 227.00 W/m2 unknown
15:09 82.4 °F 64.4 °F 29.8 in East 6.8 mph 9.3 mph 55% 0 in 812.00 W/m2 unknown
15:14 82.4 °F 64.4 °F 29.8 in East 6.8 mph 8.7 mph 55% 0 in 831.00 W/m2 unknown
15:19 84.2 °F 64.4 °F 29.8 in ESE 6.2 mph 8.1 mph 53% 0 in 833.00 W/m2 unknown
15:24 84.2 °F 64.4 °F 29.8 in East 3.1 mph 8.1 mph 51% 0 in 828.00 W/m2 unknown
15:29 84.2 °F 66.2 °F 29.8 in East 3.7 mph 6.2 mph 54% 0 in 830.00 W/m2 unknown
15:34 84.2 °F 64.4 °F 29.8 in East 4.3 mph 6.2 mph 51% 0 in 824.00 W/m2 unknown
15:39 84.2 °F 62.6 °F 29.8 in East 2.5 mph 6.2 mph 50% 0 in 807.00 W/m2 unknown
15:44 84.2 °F 64.4 °F 29.8 in SSE 3.1 mph 5 mph 50% 0 in 807.00 W/m2 unknown
15:49 86 °F 66.2 °F 29.8 in ESE 3.1 mph 5 mph 53% 0 in 805.00 W/m2 unknown
15:54 86 °F 66.2 °F 29.8 in ESE 3.1 mph 5 mph 53% 0 in 819.00 W/m2 unknown
15:59 86 °F 66.2 °F 29.8 in North 3.1 mph 5 mph 53% 0 in 810.00 W/m2 unknown
16:04 86 °F 64.4 °F 29.8 in WNW 3.1 mph 5 mph 49% 0 in 809.00 W/m2 unknown
16:08 86 °F 64.4 °F 29.8 in NNW 3.1 mph 3.7 mph 50% 0 in 812.00 W/m2 unknown
16:14 86 °F 64.4 °F 29.8 in ENE 3.1 mph 3.7 mph 49% 0 in 721.00 W/m2 unknown
16:19 86 °F 64.4 °F 29.8 in ESE 3.7 mph 5 mph 49% 0 in 833.00 W/m2 unknown
16:24 86 °F 64.4 °F 29.8 in SSE 2.5 mph 5 mph 49% 0 in 812.00 W/m2 unknown
16:29 86 °F 64.4 °F 29.8 in SSW 2.5 mph 5 mph 50% 0 in 800.00 W/m2 unknown
16:34 84.2 °F 64.4 °F 29.8 in SSW 3.7 mph 5 mph 51% 0 in 501.00 W/m2 unknown
16:39 84.2 °F 64.4 °F 29.8 in SSW 4.3 mph 6.8 mph 51% 0 in 374.00 W/m2 unknown
16:44 84.2 °F 64.4 °F 29.8 in SSW 6.2 mph 6.8 mph 51% 0 in 374.00 W/m2 unknown
16:49 84.2 °F 64.4 °F 29.8 in SSW 6.2 mph 6.8 mph 50% 0 in 269.00 W/m2 unknown
16:54 84.2 °F 64.4 °F 29.8 in South 3.1 mph 6.8 mph 52% 0 in 269.00 W/m2 unknown
16:59 84.2 °F 66.2 °F 29.8 in South 2.5 mph 5 mph 56% 0.01 in 230.00 W/m2 unknown
17:04 82.4 °F 69.8 °F 29.8 in NW 3.1 mph 3.7 mph 65% 0.01 in 241.00 W/m2 unknown
17:09 80.6 °F 69.8 °F 29.8 in NNE 6.2 mph 9.9 mph 69% 0.02 in 555.00 W/m2 unknown
17:14 80.6 °F 69.8 °F 29.8 in East 6.2 mph 10.6 mph 72% 0.03 in 508.00 W/m2 unknown
17:19 78.8 °F 69.8 °F 29.8 in East 6.8 mph 9.9 mph 73% 0.04 in 508.00 W/m2 unknown
17:24 77 °F 68 °F 29.8 in ESE 5 mph 8.7 mph 75% 0.05 in 494.00 W/m2 unknown
17:29 77 °F 69.8 °F 29.8 in ESE 5 mph 6.8 mph 78% 0.05 in 415.00 W/m2 unknown
17:34 77 °F 71.6 °F 29.8 in SE 3.1 mph 5 mph 80% 0.05 in 341.00 W/m2 unknown
17:39 77 °F 71.6 °F 29.8 in SE 2.5 mph 3.7 mph 81% 0.05 in 445.00 W/m2 unknown
17:44 77 °F 71.6 °F 29.8 in SE 3.7 mph 3.7 mph 81% 0.05 in 413.00 W/m2 unknown
17:49 77 °F 71.6 °F 29.8 in SE 3.7 mph 6.2 mph 82% 0.05 in 128.00 W/m2 unknown
17:54 77 °F 69.8 °F 29.8 in ESE 3.7 mph 6.2 mph 81% 0.05 in 91.00 W/m2 unknown
17:59 77 °F 69.8 °F 29.8 in SE 4.3 mph 6.2 mph 80% 0.06 in 72.00 W/m2 unknown
18:04 75.2 °F 69.8 °F 29.8 in ESE 4.3 mph 5 mph 80% 0.05 in 69.00 W/m2 unknown
18:09 75.2 °F 68 °F 29.8 in SE 3.7 mph 5 mph 79% 0.05 in 69.00 W/m2 unknown
18:14 75.2 °F 68 °F 29.8 in East 3.1 mph 5 mph 79% 0.04 in 67.00 W/m2 unknown
18:19 75.2 °F 69.8 °F 29.8 in NNW 4.3 mph 6.8 mph 80% 0.02 in 63.00 W/m2 unknown
18:24 75.2 °F 68 °F 29.8 in NNW 4.3 mph 6.8 mph 75% 0.02 in 62.00 W/m2 unknown
18:29 75.2 °F 66.2 °F 29.8 in NW 3.1 mph 6.2 mph 74% 0.01 in 60.00 W/m2 unknown
18:34 75.2 °F 66.2 °F 29.8 in WNW 3.1 mph 5 mph 70% 0.01 in 58.00 W/m2 unknown
18:39 75.2 °F 68 °F 29.8 in NW 1.9 mph 5 mph 75% 0.01 in 54.00 W/m2 unknown
18:44 75.2 °F 66.2 °F 29.8 in NW 2.5 mph 3.7 mph 73% 0.01 in 54.00 W/m2 unknown
18:49 75.2 °F 66.2 °F 29.8 in WNW 3.1 mph 3.7 mph 72% 0.01 in 53.00 W/m2 unknown
18:54 75.2 °F 64.4 °F 29.8 in WNW 3.1 mph 3.7 mph 69% 0.01 in 53.00 W/m2 unknown
18:59 75.2 °F 64.4 °F 29.8 in WNW 1.9 mph 3.7 mph 68% 0 in 51.00 W/m2 unknown
19:04 75.2 °F 66.2 °F 29.8 in WNW 1.9 mph 3.7 mph 71% 0 in 51.00 W/m2 unknown
19:09 75.2 °F 66.2 °F 29.8 in NW 2.5 mph 3.7 mph 72% 0 in 51.00 W/m2 unknown
19:14 75.2 °F 66.2 °F 29.8 in NW 1.9 mph 3.7 mph 72% 0 in 53.00 W/m2 unknown
19:19 75.2 °F 66.2 °F 29.8 in SW 3.7 mph 5 mph 75% 0 in 53.00 W/m2 unknown
19:24 75.2 °F 66.2 °F 29.8 in SW 3.1 mph 5 mph 73% 0 in 53.00 W/m2 unknown
19:29 75.2 °F 64.4 °F 29.8 in SW 3.1 mph 5 mph 72% 0 in 53.00 W/m2 unknown
19:34 75.2 °F 66.2 °F 29.8 in SW 1.9 mph 3.7 mph 73% 0 in 51.00 W/m2 unknown
19:39 75.2 °F 66.2 °F 29.8 in SSW 1.2 mph 3.1 mph 75% 0 in 49.00 W/m2 unknown
19:44 75.2 °F 66.2 °F 29.8 in SW 1.2 mph 2.5 mph 75% 0 in 46.00 W/m2 unknown
19:49 75.2 °F 66.2 °F 29.8 in WSW 1.9 mph 3.7 mph 74% 0 in 44.00 W/m2 unknown
19:54 75.2 °F 66.2 °F 29.8 in WSW 1.2 mph 3.1 mph 73% 0 in 40.00 W/m2 unknown
19:59 75.2 °F 66.2 °F 29.8 in West 1.2 mph 2.5 mph 75% 0 in 35.00 W/m2 unknown
20:04 75.2 °F 66.2 °F 29.8 in West 0.6 mph 1.9 mph 76% 0 in 33.00 W/m2 unknown
20:09 75.2 °F 66.2 °F 29.8 in SW 1.9 mph 3.1 mph 77% 0 in 30.00 W/m2 unknown
20:14 73.4 °F 66.2 °F 29.8 in SW 2.5 mph 3.7 mph 78% 0 in 26.00 W/m2 unknown
20:19 73.4 °F 68 °F 29.8 in SW 1.2 mph 3.7 mph 80% 0 in 26.00 W/m2 unknown
20:24 73.4 °F 68 °F 29.8 in SW 0.6 mph 3.1 mph 80% 0 in 23.00 W/m2 unknown
20:29 73.4 °F 66.2 °F 29.8 in SW 1.9 mph 3.7 mph 79% 0 in 19.00 W/m2 unknown
20:34 73.4 °F 66.2 °F 29.8 in SSW 1.9 mph 3.1 mph 79% 0 in 14.00 W/m2 unknown
20:39 73.4 °F 66.2 °F 29.8 in SSW 1.9 mph 2.5 mph 79% 0 in 11.00 W/m2 unknown
20:44 73.4 °F 66.2 °F 29.8 in SW 1.2 mph 2.5 mph 79% 0 in 9.00 W/m2 unknown
20:49 73.4 °F 66.2 °F 29.8 in SW 1.9 mph 2.5 mph 78% 0 in 5.00 W/m2 unknown
20:54 73.4 °F 66.2 °F 29.8 in SW 1.9 mph 2.5 mph 77% 0 in 0.00 W/m2 unknown
20:59 73.4 °F 66.2 °F 29.8 in SW 1.2 mph 2.5 mph 77% 0 in 0.00 W/m2 unknown
21:04 73.4 °F 64.4 °F 29.8 in SW 1.2 mph 2.5 mph 77% 0 in 0.00 W/m2 unknown
21:09 73.4 °F 64.4 °F 29.8 in SW 1.2 mph 2.5 mph 78% 0 in 0.00 W/m2 unknown
21:14 71.6 °F 66.2 °F 29.8 in SW 1.2 mph 1.9 mph 80% 0 in 0.00 W/m2 unknown
21:19 71.6 °F 66.2 °F 29.8 in WSW 1.9 mph 2.5 mph 80% 0 in 0.00 W/m2 unknown
21:24 71.6 °F 64.4 °F 29.8 in WSW 1.9 mph 2.5 mph 78% 0 in 0.00 W/m2 unknown
21:29 71.6 °F 64.4 °F 29.9 in West 1.9 mph 3.7 mph 77% 0 in 0.00 W/m2 unknown
21:34 71.6 °F 64.4 °F 29.9 in WSW 1.9 mph 3.7 mph 77% 0 in 0.00 W/m2 unknown
21:39 71.6 °F 64.4 °F 29.9 in SW 1.2 mph 3.1 mph 77% 0 in 0.00 W/m2 unknown
21:44 71.6 °F 64.4 °F 29.9 in SW 1.2 mph 2.5 mph 77% 0 in 0.00 W/m2 unknown
21:49 71.6 °F 64.4 °F 29.9 in Calm   1.9 mph 80% 0 in 0.00 W/m2 unknown
21:54 71.6 °F 64.4 °F 29.9 in Calm   1.2 mph 81% 0 in 0.00 W/m2 unknown
21:59 71.6 °F 64.4 °F 29.9 in Calm   1.2 mph 82% 0 in 0.00 W/m2 unknown
22:04 69.8 °F 64.4 °F 29.9 in SSE 1.2 mph 2.5 mph 84% 0 in 0.00 W/m2 unknown
22:09 69.8 °F 64.4 °F 29.9 in SSE 1.2 mph 2.5 mph 85% 0 in 0.00 W/m2 unknown
22:14 69.8 °F 64.4 °F 29.9 in SSE 0.6 mph 1.9 mph 85% 0 in 0.00 W/m2 unknown
22:19 69.8 °F 64.4 °F 29.9 in SSE 1.2 mph 2.5 mph 85% 0 in 0.00 W/m2 unknown
22:24 69.8 °F 64.4 °F 29.9 in SSE 1.2 mph 1.9 mph 85% 0 in 0.00 W/m2 unknown
22:29 69.8 °F 64.4 °F 29.9 in Calm   1.2 mph 85% 0 in 0.00 W/m2 unknown
22:34 69.8 °F 64.4 °F 29.9 in SSE 1.2 mph 2.5 mph 85% 0 in 0.00 W/m2 unknown
22:39 69.8 °F 64.4 °F 29.9 in South 1.2 mph 2.5 mph 84% 0 in 0.00 W/m2 unknown
22:44 69.8 °F 66.2 °F 29.9 in WSW 1.2 mph 2.5 mph 85% 0 in 0.00 W/m2 unknown
22:49 69.8 °F 66.2 °F 29.9 in WSW 1.9 mph 3.1 mph 85% 0 in 0.00 W/m2 unknown
22:54 69.8 °F 64.4 °F 29.9 in ENE 9.3 mph 14.3 mph 85% 0 in 0.00 W/m2 unknown
22:59 69.8 °F 64.4 °F 29.9 in ENE 9.3 mph 14.3 mph 85% 0 in 0.00 W/m2 unknown
23:04 69.8 °F 64.4 °F 29.9 in ENE 8.7 mph 13 mph 84% 0 in 0.00 W/m2 unknown
23:09 69.8 °F 64.4 °F 29.9 in ENE 6.2 mph 11.8 mph 82% 0 in 0.00 W/m2 unknown
23:14 71.6 °F 62.6 °F 29.9 in ENE 7.5 mph 9.9 mph 78% 0 in 0.00 W/m2 unknown
23:19 71.6 °F 62.6 °F 29.9 in East 7.5 mph 11.2 mph 77% 0 in 0.00 W/m2 unknown
23:24 71.6 °F 62.6 °F 29.9 in ENE 10.6 mph 16.8 mph 75% 0 in 0.00 W/m2 unknown
23:29 69.8 °F 62.6 °F 29.9 in East 12.4 mph 17.4 mph 75% 0 in 0.00 W/m2 unknown
23:34 69.8 °F 60.8 °F 29.9 in ENE 8.7 mph 16.8 mph 76% 0 in 0.00 W/m2 unknown
23:39 69.8 °F 60.8 °F 29.9 in East 9.3 mph 11.8 mph 75% 0.01 in 0.00 W/m2 unknown
23:44 69.8 °F 60.8 °F 29.9 in ESE 10.6 mph 13 mph 80% 0.06 in 0.00 W/m2 unknown
23:49 68 °F 60.8 °F 29.9 in ESE 8.1 mph 13 mph 84% 0.09 in 0.00 W/m2 unknown
23:54 66.2 °F 62.6 °F 29.9 in SSE 3.1 mph 3.7 mph 87% 0.11 in 0.00 W/m2 unknown
23:59 66.2 °F 62.6 °F 29.9 in South 3.7 mph 6.2 mph 88% 0.12 in 0.00 W/m2 unknown
Stazione Meteorologica MeteoMincio Rivalta s/M (MN)
Con i complimenti di Weather Underground - 4 mb



METEO PILLOLE
Nevicata con fiocchi più grandi
Montana - USA
Nella spettacolare nevicata del 1994 caddero fiocchi del diametro di 40 cm.
Share

Non seguire questo link o sarai bannato dal sito!